METAR AND TAF INFORMATION
METAR FOR EGCC
ADDS - METARS form results

(0844 UTC 23 August 2019)
Data provider http://aviationweather.gov/metar/data/
 
METAR text: EGCC 230820Z AUTO 18004KT 110V240 9999 FEW013 18/15 Q1024
Conditions at: EGCC (MANCHESTER INTL , GB) observed 0820 UTC 23 August 2019
Temperature: 18.0°C (64°F)
Dewpoint: 15.0°C (59°F) [RH = 83%]
Pressure (altimeter): 30.24 inches Hg (1024.0 mb)
Winds: from the S (180 degrees) at 5 MPH (4 knots; 2.1 m/s)
Visibility: 6 or more miles (10+ km)
Ceiling: at least 12,000 feet AGL
Clouds: few clouds at 1300 feet AGL
Weather: no significant weather observed at this time

METAR text: EGCC 230750Z AUTO 18004KT 140V220 9999 NCD 18/15 Q1024 NOSIG
Conditions at: EGCC (MANCHESTER INTL , GB) observed 0750 UTC 23 August 2019
Temperature: 18.0°C (64°F)
Dewpoint: 15.0°C (59°F) [RH = 83%]
Pressure (altimeter): 30.24 inches Hg (1024.0 mb)
Winds: from the S (180 degrees) at 5 MPH (4 knots; 2.1 m/s)
Visibility: 6 or more miles (10+ km)
Ceiling: at least 12,000 feet AGL
Clouds: sky clear below 12,000 feet AGL
Weather: no significant weather observed at this time

Forecast for: EGCC (MANCHESTER INTL , GB)
Text: TAF EGCC 230500Z 2306/2412 18005KT 9999 SCT025
Forecast period: 0600 UTC 23 August 2019 to 1200 UTC 24 August 2019
Forecast type: FROM: standard forecast or significant change
Winds: from the S (180 degrees) at 6 MPH (5 knots; 2.6 m/s)
Visibility: 6 or more miles 10+ km)
Ceiling: at least 12,000 feet AGL
Clouds: scattered clouds at 2500 feet AGL
Weather: no significant weather forecast for this period

 AIRPORT MAP

 RUNWAY INFORMATION
Runway 05L Runway length 10000 ft Runway width 150 ft
Runway elevation 212 ft Runway displaced threshold 1401 ft Runway heading 51
Runway 23R Runway length 10000 ft Runway width 150 ft
Runway elevation 249 ft Runway displaced threshold 600 ft Runway heading 231
Runway 05R Runway length 9997 ft Runway width 150 ft
Runway elevation 186 ft Runway displaced threshold 604 ft Runway heading 51
Runway 23L Runway length 9997 ft Runway width 150 ft
Runway elevation 227 ft Runway displaced threshold 604 ft Runway heading 231

 AIRPORT FREQUENCIES
Type APP Name APP Frequency 135 MHZ
Type ATIS Name ATIS Frequency 128.175 MHZ
Type CLD Name CLNC DEL Frequency 121.7 MHZ
Type GND Name GND Frequency 121.85 MHZ
Type TWR Name TWR Frequency 118.625 MHZ

 AIRPORT NEAR NAVIGATION AIDS
Type NDB Name Manchester Frequency 428 KHZ
Type VOR-DME Name Manchester Frequency 113550 KHZ



Powered by Virtual Airlines Manager [v2.6.2]